Time;durP1;ratioP1;P1;durP2;ratioP2;P2;SDS_P1;SDS_P2;PMS_P1;PMS_P2;Temp;Humidity;BMP_temperature;BMP_pressure;BME280_temperature;BME280_humidity;BME280_pressure;Samples;Min_cycle;Max_cycle;Signal;HPM_P1;HPM_P2
2022/12/25 00:02:30;;;;;;;5.20;1.50;;;;;;;;;;5019755;28;20574;-77
2022/12/25 00:05:37;;;;;;;2.97;1.40;;;;;;;;;;5021919;28;20205;-78
2022/12/25 00:08:42;;;;;;;1.77;1.53;;;;;;;;;;5002444;28;20178;-77
2022/12/25 00:11:46;;;;;;;5.53;1.50;;;;;;;;;;4984360;28;20217;-78
2022/12/25 00:14:52;;;;;;;3.93;1.80;;;;;;;;;;5021671;28;20185;-78
2022/12/25 00:17:56;;;;;;;1.83;1.50;;;;;;;;;;5008309;28;20213;-77
2022/12/25 00:21:03;;;;;;;1.97;1.60;;;;;;;;;;5019749;28;20209;-77
2022/12/25 00:24:08;;;;;;;2.70;1.40;;;;;;;;;;5019743;28;20181;-77
2022/12/25 00:27:12;;;;;;;3.27;1.43;;;;;;;;;;4995082;28;20209;-77
2022/12/25 00:30:17;;;;;;;2.70;1.70;;;;;;;;;;5018474;28;20202;-78
2022/12/25 00:33:21;;;;;;;1.50;1.30;;;;;;;;;;5003827;28;20672;-78
2022/12/25 00:36:25;;;;;;;2.47;1.53;;;;;;;;;;5001909;28;20193;-77
2022/12/25 00:39:30;;;;;;;2.97;1.90;;;;;;;;;;4994157;28;20205;-77
2022/12/25 00:42:34;;;;;;;3.07;1.60;;;;;;;;;;5000154;28;20229;-77
2022/12/25 00:45:38;;;;;;;2.37;1.57;;;;;;;;;;5003643;28;20209;-77
2022/12/25 00:48:46;;;;;;;3.00;1.77;;;;;;;;;;5002306;28;20185;-77
2022/12/25 00:51:51;;;;;;;2.67;1.80;;;;;;;;;;4992170;28;20225;-77
2022/12/25 00:54:55;;;;;;;2.83;1.80;;;;;;;;;;5015903;28;20185;-78
2022/12/25 00:57:59;;;;;;;4.03;1.87;;;;;;;;;;4995133;28;20538;-77
2022/12/25 01:01:03;;;;;;;2.90;1.90;;;;;;;;;;5001968;28;20561;-78
2022/12/25 01:04:09;;;;;;;3.67;1.93;;;;;;;;;;5003842;28;20657;-78
2022/12/25 01:07:15;;;;;;;6.20;2.00;;;;;;;;;;4987511;28;20206;-78
2022/12/25 01:10:22;;;;;;;2.90;2.10;;;;;;;;;;4996513;28;20182;-77
2022/12/25 01:13:27;;;;;;;3.23;2.60;;;;;;;;;;4996547;28;20633;-77
2022/12/25 01:16:32;;;;;;;5.37;2.17;;;;;;;;;;5005515;28;20201;-77
2022/12/25 01:19:35;;;;;;;3.40;2.47;;;;;;;;;;5015872;28;20213;-78
2022/12/25 01:22:40;;;;;;;5.27;2.50;;;;;;;;;;5014474;28;20221;-77
2022/12/25 01:25:45;;;;;;;4.03;2.90;;;;;;;;;;5002609;28;20300;-77
2022/12/25 01:28:50;;;;;;;6.20;2.73;;;;;;;;;;5014698;28;20182;-77
2022/12/25 01:31:54;;;;;;;4.40;2.60;;;;;;;;;;5014311;28;20224;-77
2022/12/25 01:34:58;;;;;;;4.97;2.40;;;;;;;;;;5002079;28;20656;-77
2022/12/25 01:38:02;;;;;;;3.97;2.40;;;;;;;;;;5002455;28;20181;-77
2022/12/25 01:41:07;;;;;;;5.20;2.70;;;;;;;;;;5003914;28;20221;-77
2022/12/25 01:44:11;;;;;;;4.37;2.67;;;;;;;;;;5012702;28;20204;-77
2022/12/25 01:47:17;;;;;;;4.97;3.00;;;;;;;;;;5014228;28;20205;-77
2022/12/25 01:50:21;;;;;;;4.50;3.10;;;;;;;;;;5014249;28;20538;-77
2022/12/25 01:53:26;;;;;;;4.27;2.90;;;;;;;;;;5014568;28;20181;-77
2022/12/25 01:56:31;;;;;;;4.40;2.97;;;;;;;;;;5014009;28;20193;-77
2022/12/25 01:59:35;;;;;;;5.13;3.70;;;;;;;;;;4990853;28;20233;-78
2022/12/25 02:02:41;;;;;;;5.20;3.70;;;;;;;;;;5002129;28;20213;-77
2022/12/25 02:05:46;;;;;;;7.63;4.00;;;;;;;;;;5002170;28;20767;-77
2022/12/25 02:08:50;;;;;;;7.00;3.20;;;;;;;;;;5014642;28;20177;-77
2022/12/25 02:11:57;;;;;;;4.03;3.30;;;;;;;;;;5014075;28;20217;-77
2022/12/25 02:15:08;;;;;;;5.53;3.87;;;;;;;;;;5002288;28;20204;-77
2022/12/25 02:18:31;;;;;;;5.40;3.37;;;;;;;;;;4992013;28;20197;-77
2022/12/25 02:21:56;;;;;;;3.97;3.20;;;;;;;;;;5013923;28;20229;-77
2022/12/25 02:25:16;;;;;;;4.10;3.40;;;;;;;;;;5014187;28;20205;-77
2022/12/25 02:28:26;;;;;;;5.00;3.27;;;;;;;;;;4991222;28;20186;-78
2022/12/25 02:31:42;;;;;;;5.43;3.60;;;;;;;;;;4994730;28;20214;-77
2022/12/25 02:35:02;;;;;;;4.73;3.37;;;;;;;;;;5007275;28;20197;-77
2022/12/25 02:38:15;;;;;;;6.13;3.53;;;;;;;;;;5005987;28;20177;-77
2022/12/25 02:41:19;;;;;;;5.47;3.30;;;;;;;;;;4995940;28;20218;-77
2022/12/25 03:08:41;;;;;;;4.50;2.93;;;;;;;;;;5016679;28;20216;-77
2022/12/25 03:11:49;;;;;;;5.90;3.50;;;;;;;;;;4983574;28;20217;-78
2022/12/25 03:18:18;;;;;;;4.50;3.10;;;;;;;;;;4999592;28;20186;-78
2022/12/25 03:28:08;;;;;;;4.80;3.17;;;;;;;;;;5017161;28;20186;-77
2022/12/25 03:31:23;;;;;;;3.87;3.07;;;;;;;;;;5005514;28;20220;-77
2022/12/25 03:38:52;;;;;;;5.27;3.17;;;;;;;;;;5016387;28;20181;-77
2022/12/25 04:37:00;;;;;;;3.97;3.07;;;;;;;;;;5002036;28;20201;-77
2022/12/25 04:40:05;;;;;;;4.57;2.93;;;;;;;;;;5002060;28;20213;-77
2022/12/25 04:43:09;;;;;;;5.93;3.10;;;;;;;;;;5003230;28;20185;-77
2022/12/25 04:46:13;;;;;;;3.80;2.57;;;;;;;;;;5002341;28;20209;-77
2022/12/25 04:49:17;;;;;;;4.70;2.93;;;;;;;;;;4997699;28;20543;-77
2022/12/25 04:52:21;;;;;;;3.10;2.80;;;;;;;;;;4999354;28;20221;-77
2022/12/25 04:55:26;;;;;;;5.57;2.90;;;;;;;;;;4980897;28;20206;-77
2022/12/25 04:58:30;;;;;;;5.20;3.50;;;;;;;;;;5010439;28;20193;-77
2022/12/25 05:01:34;;;;;;;4.53;2.97;;;;;;;;;;5002290;28;20689;-77
2022/12/25 05:04:39;;;;;;;3.97;2.83;;;;;;;;;;5001554;28;20209;-77
2022/12/25 05:07:43;;;;;;;4.43;3.00;;;;;;;;;;5013319;28;20205;-77
2022/12/25 05:10:47;;;;;;;2.97;2.53;;;;;;;;;;5014644;28;20197;-77
2022/12/25 05:13:51;;;;;;;4.33;3.33;;;;;;;;;;5001953;28;20178;-77
2022/12/25 05:16:55;;;;;;;3.67;3.07;;;;;;;;;;5014854;28;20185;-77
2022/12/25 05:20:00;;;;;;;6.23;2.90;;;;;;;;;;4984099;28;20210;-77
2022/12/25 05:23:04;;;;;;;3.00;2.50;;;;;;;;;;4980516;28;20201;-77
2022/12/25 05:26:08;;;;;;;2.67;2.10;;;;;;;;;;5013241;28;20660;-77
2022/12/25 05:29:12;;;;;;;5.20;2.80;;;;;;;;;;5001835;28;20198;-77
2022/12/25 05:32:17;;;;;;;4.67;2.53;;;;;;;;;;5013955;28;20213;-77
2022/12/25 05:35:21;;;;;;;3.40;2.90;;;;;;;;;;4990692;28;20209;-77
2022/12/25 05:38:25;;;;;;;6.80;2.63;;;;;;;;;;4998630;28;20201;-77
2022/12/25 05:41:29;;;;;;;3.70;2.87;;;;;;;;;;4990636;28;20233;-77
2022/12/25 05:44:33;;;;;;;2.90;2.30;;;;;;;;;;5010024;28;20197;-77
2022/12/25 05:47:38;;;;;;;5.50;2.67;;;;;;;;;;5013051;28;20209;-77
2022/12/25 05:50:42;;;;;;;2.87;2.00;;;;;;;;;;5001580;28;20657;-77
2022/12/25 05:53:46;;;;;;;2.80;2.00;;;;;;;;;;4986677;28;20201;-77
2022/12/25 05:56:50;;;;;;;3.03;1.80;;;;;;;;;;5012631;28;20201;-77
2022/12/25 05:59:54;;;;;;;1.70;1.60;;;;;;;;;;5001931;28;20186;-77
2022/12/25 06:02:59;;;;;;;2.30;1.70;;;;;;;;;;4971619;28;20225;-77
2022/12/25 06:06:03;;;;;;;2.30;1.70;;;;;;;;;;5013456;28;20205;-77
2022/12/25 06:09:10;;;;;;;2.57;1.67;;;;;;;;;;5002965;28;20213;-77
2022/12/25 06:12:14;;;;;;;2.20;1.70;;;;;;;;;;5005224;28;20217;-77
2022/12/25 06:15:18;;;;;;;2.27;1.70;;;;;;;;;;5017874;28;20213;-77
2022/12/25 06:18:22;;;;;;;1.87;1.60;;;;;;;;;;4976246;28;20174;-77
2022/12/25 06:21:26;;;;;;;2.80;1.37;;;;;;;;;;5017087;28;20225;-77
2022/12/25 06:24:30;;;;;;;1.60;1.20;;;;;;;;;;5005121;28;20209;-77
2022/12/25 06:27:34;;;;;;;3.83;1.40;;;;;;;;;;4990498;28;20202;-77
2022/12/25 06:30:38;;;;;;;1.63;1.30;;;;;;;;;;5005041;28;20177;-77
2022/12/25 06:33:43;;;;;;;1.50;1.40;;;;;;;;;;4979828;28;20185;-77
2022/12/25 06:36:47;;;;;;;1.33;1.10;;;;;;;;;;5016426;28;20205;-77
2022/12/25 06:39:51;;;;;;;1.20;1.10;;;;;;;;;;4978197;28;20205;-77
2022/12/25 06:42:55;;;;;;;2.80;1.60;;;;;;;;;;5004172;28;20566;-77
2022/12/25 06:46:05;;;;;;;1.90;1.50;;;;;;;;;;5005446;28;20178;-77
2022/12/25 06:49:09;;;;;;;1.87;1.37;;;;;;;;;;5004714;28;20201;-77
2022/12/25 06:52:13;;;;;;;4.00;1.67;;;;;;;;;;5008728;28;20222;-77
2022/12/25 06:55:18;;;;;;;2.37;1.63;;;;;;;;;;4998635;28;20206;-77
2022/12/25 06:58:22;;;;;;;2.57;2.17;;;;;;;;;;4993111;28;20209;-77
2022/12/25 07:01:29;;;;;;;3.20;2.10;;;;;;;;;;5004876;28;20232;-77
2022/12/25 07:04:39;;;;;;;3.53;2.00;;;;;;;;;;4988158;28;20182;-78
2022/12/25 07:07:43;;;;;;;2.20;2.00;;;;;;;;;;5005331;28;20185;-77
2022/12/25 07:10:48;;;;;;;2.27;1.90;;;;;;;;;;5029559;28;20216;-77
2022/12/25 07:13:52;;;;;;;13.90;6.57;;;;;;;;;;5037525;28;20181;-78
2022/12/25 07:16:56;;;;;;;28.60;11.40;;;;;;;;;;5025009;28;20181;-77
2022/12/25 07:20:01;;;;;;;34.97;12.97;;;;;;;;;;5004426;28;20209;-77
2022/12/25 07:23:04;;;;;;;36.27;14.97;;;;;;;;;;4996870;28;20181;-77
2022/12/25 07:26:10;;;;;;;31.67;11.27;;;;;;;;;;5004821;28;20204;-77
2022/12/25 07:29:14;;;;;;;15.87;6.77;;;;;;;;;;5003418;28;20571;-77
2022/12/25 07:32:18;;;;;;;14.70;5.53;;;;;;;;;;4991640;28;20217;-77
2022/12/25 07:35:23;;;;;;;12.03;6.20;;;;;;;;;;5003068;28;20205;-77
2022/12/25 07:38:27;;;;;;;6.43;5.03;;;;;;;;;;4991678;28;20665;-77
2022/12/25 07:41:31;;;;;;;4.73;3.43;;;;;;;;;;5016033;28;20229;-77
2022/12/25 07:44:50;;;;;;;6.87;3.33;;;;;;;;;;5005689;28;20197;-76
2022/12/25 07:47:55;;;;;;;7.00;3.23;;;;;;;;;;5017904;28;20181;-77
2022/12/25 07:51:10;;;;;;;4.63;3.00;;;;;;;;;;4992775;28;20557;-77
2022/12/25 07:54:15;;;;;;;5.50;2.97;;;;;;;;;;5004683;28;20182;-77
2022/12/25 07:57:19;;;;;;;3.07;2.67;;;;;;;;;;4993197;28;20182;-77
2022/12/25 08:00:28;;;;;;;5.13;2.90;;;;;;;;;;5004659;28;20178;-77
2022/12/25 08:03:33;;;;;;;3.47;2.77;;;;;;;;;;5008327;28;20530;-77
2022/12/25 08:06:37;;;;;;;2.77;2.43;;;;;;;;;;5001184;28;20668;-77
2022/12/25 08:09:41;;;;;;;4.17;2.50;;;;;;;;;;5035414;28;20173;-77
2022/12/25 08:12:46;;;;;;;3.37;2.47;;;;;;;;;;5028516;28;20217;-77
2022/12/25 08:15:56;;;;;;;3.50;2.87;;;;;;;;;;5004808;28;20190;-78
2022/12/25 08:19:01;;;;;;;3.23;2.70;;;;;;;;;;4997883;28;20182;-77
2022/12/25 08:22:05;;;;;;;3.33;2.50;;;;;;;;;;4996022;28;20237;-77
2022/12/25 08:25:09;;;;;;;3.60;2.23;;;;;;;;;;4990933;28;20197;-77
2022/12/25 08:28:13;;;;;;;6.30;2.60;;;;;;;;;;4991459;28;20197;-77
2022/12/25 08:31:24;;;;;;;6.00;2.30;;;;;;;;;;5001495;28;20221;-77
2022/12/25 08:34:28;;;;;;;4.33;2.67;;;;;;;;;;4991569;28;20202;-77
2022/12/25 08:37:33;;;;;;;2.73;2.40;;;;;;;;;;4995803;28;20182;-77
2022/12/25 08:40:37;;;;;;;5.23;3.00;;;;;;;;;;4996462;28;20197;-77
2022/12/25 08:43:41;;;;;;;3.13;2.60;;;;;;;;;;5010287;28;20201;-76
2022/12/25 08:46:45;;;;;;;4.03;3.20;;;;;;;;;;5013542;28;20193;-77
2022/12/25 08:49:50;;;;;;;3.40;2.77;;;;;;;;;;5012437;28;20205;-76
2022/12/25 08:52:54;;;;;;;3.67;3.30;;;;;;;;;;5009310;28;20220;-74
2022/12/25 08:56:05;;;;;;;4.07;3.20;;;;;;;;;;5006192;28;20198;-75
2022/12/25 08:59:10;;;;;;;3.73;3.10;;;;;;;;;;5013030;28;20220;-75
2022/12/25 09:02:15;;;;;;;3.57;3.13;;;;;;;;;;5000506;28;20977;-77
2022/12/25 09:05:20;;;;;;;4.77;3.37;;;;;;;;;;4975891;28;21825;-77
2022/12/25 09:08:25;;;;;;;4.63;3.20;;;;;;;;;;4984396;28;20186;-78
2022/12/25 09:11:29;;;;;;;8.30;3.60;;;;;;;;;;4983938;28;20685;-77
2022/12/25 09:14:33;;;;;;;4.70;3.50;;;;;;;;;;4973440;28;20202;-77
2022/12/25 09:17:37;;;;;;;5.00;3.57;;;;;;;;;;4984027;28;20194;-78
2022/12/25 09:20:41;;;;;;;4.67;3.90;;;;;;;;;;4984215;28;20174;-77
2022/12/25 09:23:45;;;;;;;4.03;3.40;;;;;;;;;;4962577;28;20190;-78
2022/12/25 09:26:50;;;;;;;4.97;3.83;;;;;;;;;;4984225;28;20201;-77
2022/12/25 09:29:54;;;;;;;5.57;3.97;;;;;;;;;;4997551;28;20183;-78
2022/12/25 09:32:58;;;;;;;5.47;3.90;;;;;;;;;;5010055;28;20251;-77
2022/12/25 09:36:06;;;;;;;5.93;3.73;;;;;;;;;;5004066;28;20200;-77
2022/12/25 09:39:10;;;;;;;7.87;3.77;;;;;;;;;;5015081;28;20193;-78
2022/12/25 09:42:19;;;;;;;4.23;3.37;;;;;;;;;;4997969;28;20225;-78
2022/12/25 09:45:28;;;;;;;3.93;3.60;;;;;;;;;;5003383;28;20197;-78
2022/12/25 09:48:38;;;;;;;3.83;3.13;;;;;;;;;;5018005;28;20641;-78
2022/12/25 09:51:44;;;;;;;4.17;3.27;;;;;;;;;;4995019;28;20205;-78
2022/12/25 09:55:03;;;;;;;4.33;2.73;;;;;;;;;;4994852;28;20186;-77
2022/12/25 09:58:11;;;;;;;3.57;3.10;;;;;;;;;;5002463;28;20190;-78
2022/12/25 10:01:24;;;;;;;3.50;3.20;;;;;;;;;;5003468;28;20712;-78
2022/12/25 10:04:47;;;;;;;3.17;2.73;;;;;;;;;;4992250;28;20602;-77
2022/12/25 10:07:57;;;;;;;3.77;3.17;;;;;;;;;;5003034;28;20181;-78
2022/12/25 10:11:28;;;;;;;4.03;2.97;;;;;;;;;;5014224;28;20225;-78
2022/12/25 10:14:32;;;;;;;4.07;2.87;;;;;;;;;;5016264;28;20177;-79
2022/12/25 10:17:45;;;;;;;3.60;2.77;;;;;;;;;;5004832;28;20201;-78
2022/12/25 10:20:52;;;;;;;6.77;5.23;;;;;;;;;;5014843;28;20190;-78
2022/12/25 10:23:57;;;;;;;3.90;3.50;;;;;;;;;;5002637;28;20174;-78
2022/12/25 10:27:06;;;;;;;6.63;4.40;;;;;;;;;;5014118;28;20189;-77
2022/12/25 10:30:17;;;;;;;5.73;3.57;;;;;;;;;;5017867;28;20182;-79
2022/12/25 10:33:21;;;;;;;4.53;3.07;;;;;;;;;;4995388;28;20193;-78
2022/12/25 10:36:28;;;;;;;4.07;2.87;;;;;;;;;;5005904;28;20177;-79
2022/12/25 10:39:32;;;;;;;4.17;3.23;;;;;;;;;;4994695;28;20186;-79
2022/12/25 10:42:42;;;;;;;3.37;2.73;;;;;;;;;;5018291;28;20229;-79
2022/12/25 10:45:48;;;;;;;3.97;2.57;;;;;;;;;;5006857;28;20197;-78
2022/12/25 10:48:56;;;;;;;3.53;2.73;;;;;;;;;;5006422;28;20185;-78
2022/12/25 10:52:01;;;;;;;2.67;2.30;;;;;;;;;;5018354;28;20217;-79
2022/12/25 10:55:17;;;;;;;4.53;2.50;;;;;;;;;;5008662;28;20178;-79
2022/12/25 10:58:21;;;;;;;2.30;2.10;;;;;;;;;;4998857;28;20182;-79
2022/12/25 11:01:27;;;;;;;2.50;2.30;;;;;;;;;;5010047;28;20209;-79
2022/12/25 11:04:34;;;;;;;2.57;2.23;;;;;;;;;;5009956;28;20178;-79
2022/12/25 11:07:53;;;;;;;3.03;2.23;;;;;;;;;;5009897;28;20177;-78
2022/12/25 11:10:58;;;;;;;3.43;2.60;;;;;;;;;;5008888;28;20681;-79
2022/12/25 11:14:03;;;;;;;3.10;2.63;;;;;;;;;;5018995;28;20174;-78
2022/12/25 11:17:20;;;;;;;2.73;2.20;;;;;;;;;;5007890;28;20177;-78
2022/12/25 11:20:24;;;;;;;2.43;2.23;;;;;;;;;;5006787;28;20186;-78
2022/12/25 11:23:31;;;;;;;3.53;2.50;;;;;;;;;;5007113;28;20221;-78
2022/12/25 11:26:47;;;;;;;3.40;2.60;;;;;;;;;;5006943;28;20178;-78
2022/12/25 11:30:02;;;;;;;2.93;2.60;;;;;;;;;;5005636;28;20186;-78
2022/12/25 11:33:11;;;;;;;3.13;2.70;;;;;;;;;;5006024;28;20518;-78
2022/12/25 11:36:46;;;;;;;5.90;2.67;;;;;;;;;;5005992;28;20182;-78
2022/12/25 11:39:51;;;;;;;4.33;2.83;;;;;;;;;;5008591;28;20178;-79
2022/12/25 11:43:05;;;;;;;4.33;3.03;;;;;;;;;;5008748;28;20224;-79
2022/12/25 11:46:27;;;;;;;4.77;3.20;;;;;;;;;;5007776;28;20182;-78
2022/12/25 11:49:39;;;;;;;3.10;2.70;;;;;;;;;;5005687;28;20181;-78
2022/12/25 11:52:45;;;;;;;3.90;3.27;;;;;;;;;;5005260;28;20218;-78
2022/12/25 11:55:56;;;;;;;3.57;2.97;;;;;;;;;;5006646;28;20197;-78
2022/12/25 11:59:20;;;;;;;4.30;2.77;;;;;;;;;;5006591;28;20202;-78
2022/12/25 12:02:33;;;;;;;6.67;2.57;;;;;;;;;;5005189;28;20221;-79
2022/12/25 12:05:44;;;;;;;4.40;2.83;;;;;;;;;;5004579;28;20201;-78
2022/12/25 12:08:52;;;;;;;7.53;2.73;;;;;;;;;;5017650;28;20186;-78
2022/12/25 12:12:22;;;;;;;3.60;2.70;;;;;;;;;;5004708;28;20550;-78
2022/12/25 12:15:46;;;;;;;4.20;3.00;;;;;;;;;;5003464;28;20178;-77
2022/12/25 12:18:50;;;;;;;3.37;2.80;;;;;;;;;;5014935;28;20182;-78
2022/12/25 12:21:58;;;;;;;3.87;3.40;;;;;;;;;;5007564;28;20212;-78
2022/12/25 12:25:06;;;;;;;3.47;3.17;;;;;;;;;;5007914;28;20177;-78
2022/12/25 12:28:21;;;;;;;4.03;3.10;;;;;;;;;;4995961;28;20182;-78
2022/12/25 12:31:47;;;;;;;6.73;3.17;;;;;;;;;;5018446;28;20209;-78
2022/12/25 12:34:52;;;;;;;3.93;3.20;;;;;;;;;;5007550;28;20182;-78
2022/12/25 12:38:23;;;;;;;6.70;3.07;;;;;;;;;;5006325;28;20197;-78
2022/12/25 12:41:44;;;;;;;4.30;3.10;;;;;;;;;;5006369;28;20220;-78
2022/12/25 12:44:49;;;;;;;5.17;3.10;;;;;;;;;;5019338;28;20174;-78
2022/12/25 12:47:53;;;;;;;3.63;2.77;;;;;;;;;;5019943;28;20177;-78
2022/12/25 12:51:13;;;;;;;3.53;2.93;;;;;;;;;;5007459;28;20225;-78
2022/12/25 12:54:19;;;;;;;3.77;2.90;;;;;;;;;;5007764;28;20617;-78
2022/12/25 12:57:25;;;;;;;3.80;2.80;;;;;;;;;;5007622;28;20181;-79
2022/12/25 13:00:43;;;;;;;4.03;2.67;;;;;;;;;;5019309;28;20197;-78
2022/12/25 13:03:54;;;;;;;3.73;2.90;;;;;;;;;;5006019;28;20210;-80
2022/12/25 13:07:25;;;;;;;5.87;2.87;;;;;;;;;;4995946;28;20173;-79
2022/12/25 13:10:39;;;;;;;3.70;3.03;;;;;;;;;;5006954;28;20189;-79
2022/12/25 13:13:45;;;;;;;5.17;2.70;;;;;;;;;;5008988;28;20178;-82
2022/12/25 13:16:52;;;;;;;4.23;3.20;;;;;;;;;;4997565;28;20201;-78
2022/12/25 13:19:58;;;;;;;5.27;2.70;;;;;;;;;;5016866;28;20185;-77
2022/12/25 13:23:24;;;;;;;4.17;2.50;;;;;;;;;;5016198;28;20221;-75
2022/12/25 13:26:29;;;;;;;4.17;2.43;;;;;;;;;;5018978;28;20181;-75
2022/12/25 13:29:37;;;;;;;5.03;2.93;;;;;;;;;;4985514;28;20189;-75
2022/12/25 13:32:41;;;;;;;3.40;2.53;;;;;;;;;;5019992;28;20218;-75
2022/12/25 13:35:46;;;;;;;3.77;2.60;;;;;;;;;;5007528;28;20522;-75
2022/12/25 13:38:52;;;;;;;3.83;2.80;;;;;;;;;;5018079;28;20181;-75
2022/12/25 13:42:10;;;;;;;6.17;2.97;;;;;;;;;;5005376;28;20213;-75
2022/12/25 13:45:22;;;;;;;2.90;2.53;;;;;;;;;;5016840;28;20178;-74
2022/12/25 13:48:26;;;;;;;2.60;2.33;;;;;;;;;;5016468;28;20522;-74
2022/12/25 13:51:30;;;;;;;3.70;2.13;;;;;;;;;;5015617;28;20221;-74
2022/12/25 13:54:34;;;;;;;2.70;2.30;;;;;;;;;;5015754;28;20173;-74
2022/12/25 13:57:51;;;;;;;3.10;2.50;;;;;;;;;;5015456;28;20177;-76
2022/12/25 14:00:57;;;;;;;3.93;2.57;;;;;;;;;;5015193;28;20617;-75
2022/12/25 14:04:02;;;;;;;3.13;2.40;;;;;;;;;;5014682;28;20217;-75
2022/12/25 14:07:10;;;;;;;5.07;2.40;;;;;;;;;;5014422;28;20506;-75
2022/12/25 14:10:15;;;;;;;2.97;2.50;;;;;;;;;;5013792;28;20193;-75
2022/12/25 14:13:24;;;;;;;2.83;2.43;;;;;;;;;;5002294;28;20177;-75
2022/12/25 14:16:28;;;;;;;2.97;2.53;;;;;;;;;;5013897;28;20185;-76
2022/12/25 14:19:33;;;;;;;3.30;2.43;;;;;;;;;;5013843;28;20185;-75
2022/12/25 14:22:37;;;;;;;4.80;2.33;;;;;;;;;;5013600;28;20570;-75
2022/12/25 14:25:46;;;;;;;5.93;2.10;;;;;;;;;;5001684;28;20182;-75
2022/12/25 14:29:09;;;;;;;3.17;2.30;;;;;;;;;;5014041;28;20181;-75
2022/12/25 14:32:19;;;;;;;3.07;2.10;;;;;;;;;;5017481;28;20217;-74
2022/12/25 14:35:24;;;;;;;2.70;2.10;;;;;;;;;;5017314;28;20194;-75
2022/12/25 14:38:33;;;;;;;2.83;2.10;;;;;;;;;;5017758;28;20629;-76
2022/12/25 14:41:40;;;;;;;2.87;2.03;;;;;;;;;;5017698;28;20213;-75
2022/12/25 14:44:58;;;;;;;2.10;1.90;;;;;;;;;;5016531;28;20209;-76
2022/12/25 14:48:17;;;;;;;6.57;2.40;;;;;;;;;;5017144;28;20193;-75
2022/12/25 14:51:21;;;;;;;2.87;2.37;;;;;;;;;;5005161;28;20558;-75
2022/12/25 14:54:25;;;;;;;3.40;2.40;;;;;;;;;;5017175;28;20181;-76
2022/12/25 14:57:37;;;;;;;3.57;2.90;;;;;;;;;;5017337;28;20185;-75
2022/12/25 15:00:41;;;;;;;4.17;2.23;;;;;;;;;;5004730;28;20665;-76
2022/12/25 15:03:47;;;;;;;2.77;2.13;;;;;;;;;;5015887;28;20676;-76
2022/12/25 15:06:54;;;;;;;5.30;2.17;;;;;;;;;;5017229;28;20182;-75
2022/12/25 15:09:58;;;;;;;3.23;2.13;;;;;;;;;;5015177;28;20186;-79
2022/12/25 15:13:02;;;;;;;4.80;2.30;;;;;;;;;;5014856;28;20217;-76
2022/12/25 15:16:16;;;;;;;5.23;2.37;;;;;;;;;;5016078;28;20196;-77
2022/12/25 15:19:28;;;;;;;7.53;2.40;;;;;;;;;;5016658;28;20181;-76
2022/12/25 15:22:32;;;;;;;2.47;2.07;;;;;;;;;;5015709;28;20217;-76
2022/12/25 15:25:36;;;;;;;3.57;2.60;;;;;;;;;;5016536;28;20182;-76
2022/12/25 15:28:40;;;;;;;3.07;2.10;;;;;;;;;;5016563;28;20186;-76
2022/12/25 15:31:44;;;;;;;6.17;2.27;;;;;;;;;;5016163;28;20213;-75
2022/12/25 15:34:49;;;;;;;2.87;1.97;;;;;;;;;;5016281;28;20197;-76
2022/12/25 15:37:53;;;;;;;4.90;2.50;;;;;;;;;;5016315;28;20178;-75
2022/12/25 15:40:57;;;;;;;5.20;2.50;;;;;;;;;;5015308;28;20181;-76
2022/12/25 15:44:03;;;;;;;3.57;2.27;;;;;;;;;;5004078;28;20221;-74
2022/12/25 15:47:12;;;;;;;3.37;2.23;;;;;;;;;;5016005;28;20182;-76
2022/12/25 15:50:17;;;;;;;3.00;2.20;;;;;;;;;;5004116;28;20174;-75
2022/12/25 15:53:21;;;;;;;3.63;2.20;;;;;;;;;;5015234;28;20181;-75
2022/12/25 15:56:26;;;;;;;4.40;2.73;;;;;;;;;;5016025;28;20178;-75
2022/12/25 15:59:32;;;;;;;3.63;2.27;;;;;;;;;;5015642;28;20178;-77
2022/12/25 16:02:36;;;;;;;3.53;2.70;;;;;;;;;;5014742;28;20221;-77
2022/12/25 16:05:40;;;;;;;3.37;2.50;;;;;;;;;;5015622;28;20672;-76
2022/12/25 16:08:44;;;;;;;3.50;2.27;;;;;;;;;;5014866;28;20178;-76
2022/12/25 16:11:49;;;;;;;4.37;2.50;;;;;;;;;;5016237;28;20213;-77
2022/12/25 16:14:53;;;;;;;2.90;2.23;;;;;;;;;;5003680;28;20182;-77
2022/12/25 16:17:57;;;;;;;3.00;2.60;;;;;;;;;;5015587;28;20178;-77
2022/12/25 16:21:01;;;;;;;4.90;2.63;;;;;;;;;;5015793;28;20676;-77
2022/12/25 16:24:06;;;;;;;6.13;2.83;;;;;;;;;;5003768;28;20205;-77
2022/12/25 16:27:10;;;;;;;4.70;2.73;;;;;;;;;;5015470;28;20194;-77
2022/12/25 16:30:16;;;;;;;5.33;3.03;;;;;;;;;;5015476;28;20185;-77
2022/12/25 16:33:21;;;;;;;10.10;3.00;;;;;;;;;;5017361;28;20181;-79
2022/12/25 16:36:25;;;;;;;3.53;2.53;;;;;;;;;;4992824;28;20201;-77
2022/12/25 16:39:29;;;;;;;3.93;2.70;;;;;;;;;;5003341;28;20200;-77
2022/12/25 16:42:33;;;;;;;9.07;2.70;;;;;;;;;;5014818;28;20225;-77
2022/12/25 16:45:38;;;;;;;3.30;2.63;;;;;;;;;;5002898;28;20190;-76
2022/12/25 16:48:43;;;;;;;4.37;3.07;;;;;;;;;;5002719;28;20205;-76
2022/12/25 16:51:47;;;;;;;3.87;2.70;;;;;;;;;;5013838;28;20696;-75
2022/12/25 16:54:51;;;;;;;4.53;3.10;;;;;;;;;;5002615;28;20649;-75
2022/12/25 16:57:56;;;;;;;5.17;3.23;;;;;;;;;;5003008;28;20197;-76
2022/12/25 17:01:07;;;;;;;6.37;2.93;;;;;;;;;;5014545;28;20213;-77
2022/12/25 17:04:12;;;;;;;4.50;3.00;;;;;;;;;;5002896;28;20210;-77
2022/12/25 17:07:16;;;;;;;5.10;2.83;;;;;;;;;;5014362;28;20201;-76
2022/12/25 17:10:21;;;;;;;4.23;2.63;;;;;;;;;;5002671;28;20240;-76
2022/12/25 17:13:25;;;;;;;4.93;2.90;;;;;;;;;;5014884;28;20177;-77
2022/12/25 17:16:34;;;;;;;5.53;3.33;;;;;;;;;;5015551;28;20186;-77
2022/12/25 17:19:38;;;;;;;6.50;4.10;;;;;;;;;;4995105;28;20186;-76
2022/12/25 17:22:42;;;;;;;5.23;3.30;;;;;;;;;;4982673;28;20218;-77
2022/12/25 17:25:47;;;;;;;4.70;3.40;;;;;;;;;;4993804;28;20170;-76
2022/12/25 17:28:51;;;;;;;7.00;3.57;;;;;;;;;;4982594;28;20182;-75
2022/12/25 17:31:55;;;;;;;5.07;2.93;;;;;;;;;;4994691;28;20222;-75
2022/12/25 17:34:59;;;;;;;4.60;2.97;;;;;;;;;;4994722;28;20178;-76
2022/12/25 17:38:03;;;;;;;4.17;3.10;;;;;;;;;;4993828;28;20186;-76
2022/12/25 17:41:11;;;;;;;4.50;3.20;;;;;;;;;;4994472;28;20218;-76
2022/12/25 17:44:16;;;;;;;5.90;3.10;;;;;;;;;;4982584;28;20210;-77
2022/12/25 17:47:20;;;;;;;5.83;3.50;;;;;;;;;;4994571;28;20182;-76
2022/12/25 17:50:25;;;;;;;8.60;3.17;;;;;;;;;;4993685;28;20186;-77
2022/12/25 17:53:29;;;;;;;4.73;3.10;;;;;;;;;;4994364;28;20186;-76
2022/12/25 17:56:34;;;;;;;5.13;3.20;;;;;;;;;;4994205;28;20186;-76
2022/12/25 17:59:38;;;;;;;6.03;3.53;;;;;;;;;;4994205;28;20637;-76
2022/12/25 18:02:45;;;;;;;5.63;3.43;;;;;;;;;;4993512;28;20217;-76
2022/12/25 18:05:49;;;;;;;5.37;3.00;;;;;;;;;;4970649;28;20292;-76
2022/12/25 18:08:55;;;;;;;4.47;2.90;;;;;;;;;;4993856;28;20182;-77
2022/12/25 18:12:00;;;;;;;5.30;3.20;;;;;;;;;;4994025;28;20218;-76
2022/12/25 18:15:04;;;;;;;4.33;3.20;;;;;;;;;;4994334;28;20499;-76
2022/12/25 18:18:09;;;;;;;5.20;3.23;;;;;;;;;;4992961;28;20198;-76
2022/12/25 18:21:13;;;;;;;7.57;3.73;;;;;;;;;;4993401;28;20218;-76
2022/12/25 18:24:17;;;;;;;6.13;3.20;;;;;;;;;;4993846;28;20205;-77
2022/12/25 18:27:21;;;;;;;8.57;3.20;;;;;;;;;;4983282;28;20519;-77
2022/12/25 18:30:26;;;;;;;6.13;3.33;;;;;;;;;;4994455;28;20186;-75
2022/12/25 18:33:30;;;;;;;4.37;3.47;;;;;;;;;;4993812;28;20182;-76
2022/12/25 18:36:35;;;;;;;5.50;3.30;;;;;;;;;;4982310;28;20511;-75
2022/12/25 18:39:39;;;;;;;5.77;3.63;;;;;;;;;;4981923;28;20531;-76
2022/12/25 18:42:45;;;;;;;6.03;3.07;;;;;;;;;;4993608;28;20214;-76
2022/12/25 18:46:00;;;;;;;7.90;3.17;;;;;;;;;;4993499;28;20214;-76
2022/12/25 18:49:04;;;;;;;5.83;4.20;;;;;;;;;;4993955;28;20524;-75
2022/12/25 18:52:08;;;;;;;6.97;4.70;;;;;;;;;;4993394;28;20694;-76
2022/12/25 18:55:12;;;;;;;6.47;4.53;;;;;;;;;;4993272;28;20193;-75
2022/12/25 18:58:17;;;;;;;5.47;4.30;;;;;;;;;;4981484;28;20673;-76
2022/12/25 19:01:23;;;;;;;8.07;3.90;;;;;;;;;;4993412;28;20214;-74
2022/12/25 19:04:27;;;;;;;5.43;3.93;;;;;;;;;;4993261;28;20210;-77
2022/12/25 19:07:31;;;;;;;5.13;4.13;;;;;;;;;;4981616;28;20191;-76
2022/12/25 19:10:38;;;;;;;9.27;3.87;;;;;;;;;;4981598;28;20186;-76
2022/12/25 19:13:42;;;;;;;5.77;3.17;;;;;;;;;;4981470;28;20186;-76
2022/12/25 19:16:46;;;;;;;5.40;3.10;;;;;;;;;;4996552;28;20178;-76
2022/12/25 19:19:50;;;;;;;9.00;5.40;;;;;;;;;;4996711;28;20178;-76
2022/12/25 19:22:55;;;;;;;12.23;5.47;;;;;;;;;;4996818;28;20217;-77
2022/12/25 19:26:01;;;;;;;13.33;6.40;;;;;;;;;;4996634;28;20206;-77
2022/12/25 19:29:06;;;;;;;7.30;5.73;;;;;;;;;;4996460;28;20227;-76
2022/12/25 19:32:09;;;;;;;8.10;5.70;;;;;;;;;;4984182;28;20213;-77
2022/12/25 19:35:14;;;;;;;7.40;5.90;;;;;;;;;;4984286;28;20202;-76
2022/12/25 19:38:18;;;;;;;8.33;5.80;;;;;;;;;;4984461;28;20194;-77
2022/12/25 19:41:23;;;;;;;8.57;5.70;;;;;;;;;;4984068;28;20713;-76
2022/12/25 19:44:27;;;;;;;25.27;12.40;;;;;;;;;;4984352;28;20210;-76
2022/12/25 19:47:31;;;;;;;28.33;14.07;;;;;;;;;;4984147;28;20671;-76
2022/12/25 19:50:35;;;;;;;26.63;11.90;;;;;;;;;;4996304;28;20195;-76
2022/12/25 19:53:39;;;;;;;11.80;7.30;;;;;;;;;;4984157;28;20187;-76
2022/12/25 19:56:44;;;;;;;6.30;4.60;;;;;;;;;;4995943;28;20198;-75
2022/12/25 19:59:48;;;;;;;4.80;3.43;;;;;;;;;;4972871;28;20182;-76
2022/12/25 20:02:52;;;;;;;4.07;2.90;;;;;;;;;;4983995;28;20218;-76
2022/12/25 20:05:56;;;;;;;3.37;2.87;;;;;;;;;;4995828;28;20701;-75
2022/12/25 20:09:05;;;;;;;4.00;2.63;;;;;;;;;;4984020;28;20186;-77
2022/12/25 20:12:13;;;;;;;4.90;2.47;;;;;;;;;;4983466;28;20214;-76
2022/12/25 20:15:18;;;;;;;3.73;2.30;;;;;;;;;;4983918;28;20198;-77